createdAt,value
2019-05-05T00:00:55.043Z,95.70
2019-05-05T00:03:29.551Z,95.50
2019-05-05T00:05:56.758Z,95.50
2019-05-05T00:08:24.575Z,95.30
2019-05-05T00:11:00.903Z,95.30
2019-05-05T00:13:34.644Z,95.30
2019-05-05T00:16:06.205Z,95.10
2019-05-05T00:18:38.963Z,95.00
2019-05-05T00:21:05.888Z,95.00
2019-05-05T00:23:34.556Z,95.10
2019-05-05T00:25:59.740Z,95.10
2019-05-05T00:28:26.659Z,95.10
2019-05-05T00:30:55.403Z,95.00
2019-05-05T00:33:20.527Z,95.00
2019-05-05T00:35:47.462Z,95.10
2019-05-05T00:38:14.426Z,94.80
2019-05-05T00:40:41.318Z,94.80
2019-05-05T00:43:08.243Z,95.30
2019-05-05T00:45:35.212Z,94.30
2019-05-05T00:48:07.480Z,95.00
2019-05-05T00:50:34.445Z,94.90
2019-05-05T00:53:01.532Z,95.00
2019-05-05T00:55:28.448Z,94.80
2019-05-05T00:57:55.371Z,94.90
2019-05-05T01:00:32.592Z,94.80
2019-05-05T01:02:59.508Z,94.80
2019-05-05T01:05:36.624Z,95.00
2019-05-05T01:08:05.193Z,95.10
2019-05-05T01:10:31.089Z,95.00
2019-05-05T01:12:58.156Z,94.90
2019-05-05T01:15:25.516Z,95.10
2019-05-05T01:17:51.996Z,95.30
2019-05-05T01:20:18.965Z,95.30
2019-05-05T01:22:45.882Z,94.90
2019-05-05T01:25:14.795Z,95.90
2019-05-05T01:27:40.216Z,96.30
2019-05-05T01:30:08.418Z,96.60
2019-05-05T01:32:37.323Z,96.60
2019-05-05T01:35:05.362Z,96.20
2019-05-05T01:37:35.222Z,95.70
2019-05-05T01:40:09.042Z,95.90
2019-05-05T01:42:35.964Z,95.60
2019-05-05T01:45:04.515Z,95.30
2019-05-05T01:47:29.864Z,95.40
2019-05-05T01:49:56.787Z,95.50
2019-05-05T01:52:25.478Z,95.30
2019-05-05T01:54:51.100Z,95.30
2019-05-05T01:57:18.028Z,95.40
2019-05-05T01:59:45.011Z,95.30
2019-05-05T02:02:11.888Z,95.30
2019-05-05T02:04:38.829Z,95.20
2019-05-05T02:07:05.782Z,95.60
2019-05-05T02:09:32.741Z,95.60
2019-05-05T02:11:59.672Z,95.90
2019-05-05T02:14:26.580Z,96.40
2019-05-05T02:16:54.555Z,96.90
2019-05-05T02:19:20.502Z,97.10
2019-05-05T02:21:47.429Z,97.00
2019-05-05T02:24:14.551Z,97.20
2019-05-05T02:26:41.488Z,97.30
2019-05-05T02:29:21.948Z,97.10
2019-05-05T02:32:11.321Z,97.00
2019-05-05T02:34:41.512Z,97.00
2019-05-05T02:37:08.446Z,97.00
2019-05-05T02:39:38.221Z,96.90
2019-05-05T02:42:05.442Z,96.70
2019-05-05T02:44:29.210Z,96.90
2019-05-05T02:47:04.584Z,97.00
2019-05-05T02:49:28.802Z,97.10
2019-05-05T02:51:55.706Z,97.00
2019-05-05T02:54:24.735Z,97.10
2019-05-05T02:56:50.867Z,97.30
2019-05-05T02:59:23.730Z,97.20
2019-05-05T03:01:53.846Z,97.50
2019-05-05T03:04:20.225Z,97.60
2019-05-05T03:06:47.148Z,97.80
2019-05-05T03:09:14.093Z,97.50
2019-05-05T03:11:41.008Z,97.30
2019-05-05T03:14:07.935Z,97.40
2019-05-05T03:16:35.491Z,97.80
2019-05-05T03:19:03.553Z,97.50
2019-05-05T03:21:29.320Z,97.60
2019-05-05T03:23:56.246Z,97.80
2019-05-05T03:26:23.451Z,97.80
2019-05-05T03:28:54.425Z,97.80
2019-05-05T03:31:20.543Z,97.50
2019-05-05T03:33:47.470Z,96.60
2019-05-05T03:36:14.395Z,96.30
2019-05-05T03:38:41.477Z,96.10
2019-05-05T03:41:11.296Z,96.00
2019-05-05T03:43:41.011Z,95.70
2019-05-05T03:46:08.602Z,95.90
2019-05-05T03:48:35.515Z,95.70
2019-05-05T03:51:16.873Z,96.00
2019-05-05T03:53:29.384Z,96.20
2019-05-05T03:55:56.317Z,96.40
2019-05-05T03:58:24.940Z,96.70
2019-05-05T04:01:18.329Z,96.80
2019-05-05T04:03:45.235Z,96.90
2019-05-05T04:06:12.160Z,97.10
2019-05-05T04:08:39.115Z,96.90
2019-05-05T04:11:06.027Z,97.30
2019-05-05T04:13:34.477Z,97.30
2019-05-05T04:16:18.143Z,97.00
2019-05-05T04:18:48.352Z,96.50
2019-05-05T04:21:15.321Z,96.00
2019-05-05T04:23:44.057Z,95.60
2019-05-05T04:26:09.212Z,95.30
2019-05-05T04:28:36.198Z,95.10
2019-05-05T04:31:04.233Z,95.10
2019-05-05T04:33:30.085Z,95.40
2019-05-05T04:35:57.022Z,95.40
2019-05-05T04:38:24.380Z,95.30
2019-05-05T04:40:50.933Z,95.20
2019-05-05T04:43:17.848Z,95.20
2019-05-05T04:45:44.790Z,95.50
2019-05-05T04:48:16.440Z,95.80
2019-05-05T04:51:04.706Z,95.80
2019-05-05T04:53:35.225Z,95.70
2019-05-05T04:56:04.038Z,95.10
2019-05-05T04:58:30.524Z,95.20
2019-05-05T05:00:57.464Z,94.90
2019-05-05T05:03:34.629Z,94.60
2019-05-05T05:06:05.029Z,94.60
2019-05-05T05:08:33.691Z,94.50
2019-05-05T05:10:58.881Z,94.30
2019-05-05T05:13:25.822Z,94.30
2019-05-05T05:15:53.948Z,94.40
2019-05-05T05:18:19.695Z,94.70
2019-05-05T05:20:46.616Z,94.50
2019-05-05T05:23:14.130Z,94.30
2019-05-05T05:25:40.505Z,94.50
2019-05-05T05:28:07.446Z,94.20
2019-05-05T05:30:34.772Z,93.80
2019-05-05T05:33:01.308Z,93.60
2019-05-05T05:35:28.232Z,93.40
2019-05-05T05:37:57.701Z,92.90
2019-05-05T05:40:26.486Z,93.90
2019-05-05T05:42:54.226Z,93.50
2019-05-05T05:45:38.628Z,93.40
2019-05-05T05:48:14.586Z,93.50
2019-05-05T05:50:47.160Z,93.30
2019-05-05T05:53:14.139Z,93.10
2019-05-05T05:55:41.056Z,93.30
2019-05-05T05:58:08.032Z,93.30
2019-05-05T06:00:35.301Z,92.80
2019-05-05T06:03:03.958Z,92.90
2019-05-05T06:05:29.187Z,93.40
2019-05-05T06:07:56.095Z,93.20
2019-05-05T06:10:27.056Z,93.10
2019-05-05T06:12:50.004Z,93.30
2019-05-05T06:15:16.928Z,93.10
2019-05-05T06:17:43.844Z,92.80
2019-05-05T06:20:10.815Z,92.70
2019-05-05T06:22:37.735Z,92.60
2019-05-05T06:25:06.469Z,92.50
2019-05-05T06:27:34.019Z,92.20
2019-05-05T06:29:58.864Z,91.80
2019-05-05T06:32:25.808Z,91.70
2019-05-05T06:34:53.495Z,91.60
2019-05-05T06:37:19.689Z,91.70
2019-05-05T06:39:46.616Z,91.40
2019-05-05T06:42:24.280Z,92.00
2019-05-05T06:44:57.084Z,91.90
2019-05-05T06:47:27.887Z,92.20
2019-05-05T06:49:54.808Z,90.70
2019-05-05T06:52:21.720Z,91.20
2019-05-05T06:54:48.686Z,91.00
2019-05-05T06:57:15.606Z,90.70
2019-05-05T06:59:43.886Z,90.70
2019-05-05T07:02:10.651Z,91.20
2019-05-05T07:04:37.576Z,91.00
2019-05-05T07:07:05.195Z,90.80
2019-05-05T07:09:33.446Z,91.10
2019-05-05T07:11:58.386Z,90.70
2019-05-05T07:14:25.275Z,90.90
2019-05-05T07:16:54.341Z,91.00
2019-05-05T07:19:19.173Z,90.60
2019-05-05T07:21:46.089Z,90.50
2019-05-05T07:24:14.542Z,88.30
2019-05-05T07:26:39.960Z,90.00
2019-05-05T07:29:06.928Z,90.00
2019-05-05T07:31:34.311Z,89.60
2019-05-05T07:34:00.804Z,89.30
2019-05-05T07:36:34.158Z,89.80
2019-05-05T07:39:00.784Z,90.00
2019-05-05T07:41:27.708Z,90.00
2019-05-05T07:43:54.632Z,89.60
2019-05-05T07:46:21.694Z,89.90
2019-05-05T07:48:48.609Z,89.60
2019-05-05T07:51:15.561Z,88.90
2019-05-05T07:53:44.313Z,88.80
2019-05-05T07:56:09.447Z,88.70
2019-05-05T07:58:36.417Z,89.60
2019-05-05T08:01:04.648Z,89.10
2019-05-05T08:03:30.682Z,88.70
2019-05-05T08:05:57.612Z,87.10
2019-05-05T08:08:24.561Z,87.40
2019-05-05T08:10:51.472Z,89.20
2019-05-05T08:13:18.391Z,89.60
2019-05-05T08:15:56.706Z,89.20
2019-05-05T08:18:28.421Z,88.70
2019-05-05T08:20:57.785Z,87.30
2019-05-05T08:23:32.773Z,85.70
2019-05-05T08:26:09.655Z,85.60
2019-05-05T08:28:43.514Z,83.90
2019-05-05T08:31:24.851Z,83.80
2019-05-05T08:33:49.496Z,83.70
2019-05-05T08:36:16.504Z,83.70
2019-05-05T08:38:44.185Z,82.50
2019-05-05T08:41:10.343Z,82.10
2019-05-05T08:43:37.305Z,80.80
2019-05-05T08:46:04.900Z,79.80
2019-05-05T08:48:31.195Z,79.40
2019-05-05T08:50:58.152Z,79.30
2019-05-05T08:53:25.087Z,79.10
2019-05-05T08:55:52.016Z,80.40
2019-05-05T08:58:18.955Z,77.80
2019-05-05T09:00:45.908Z,78.40
2019-05-05T09:03:13.893Z,79.90
2019-05-05T09:05:43.553Z,78.30
2019-05-05T09:08:08.272Z,77.00
2019-05-05T09:10:35.216Z,76.70
2019-05-05T09:13:03.745Z,77.20
2019-05-05T09:15:29.112Z,75.80
2019-05-05T09:17:56.034Z,75.40
2019-05-05T09:20:24.188Z,74.00
2019-05-05T09:22:49.939Z,71.90
2019-05-05T09:25:27.831Z,71.80
2019-05-05T09:28:06.133Z,72.20
2019-05-05T09:30:35.151Z,71.70
2019-05-05T09:33:03.580Z,71.20
2019-05-05T09:35:29.053Z,70.70
2019-05-05T09:37:55.984Z,69.50
2019-05-05T09:40:33.502Z,69.80
2019-05-05T09:43:00.084Z,67.20
2019-05-05T09:45:26.975Z,66.50
2019-05-05T09:47:54.003Z,66.30
2019-05-05T09:50:20.934Z,63.50
2019-05-05T09:52:47.856Z,63.20
2019-05-05T09:55:14.797Z,64.00
2019-05-05T09:57:43.821Z,62.30
2019-05-05T10:00:10.211Z,62.50
2019-05-05T10:02:37.142Z,62.70
2019-05-05T10:05:05.075Z,63.10
2019-05-05T10:07:34.445Z,59.80
2019-05-05T10:09:59.303Z,62.80
2019-05-05T10:12:26.265Z,60.90
2019-05-05T10:14:54.207Z,61.60
2019-05-05T10:17:20.224Z,58.90
2019-05-05T10:19:47.149Z,58.80
2019-05-05T10:22:14.803Z,59.10
2019-05-05T10:24:47.475Z,58.80
2019-05-05T10:27:14.408Z,59.80
2019-05-05T10:29:41.356Z,57.50
2019-05-05T10:32:08.329Z,56.90
2019-05-05T10:34:35.248Z,55.70
2019-05-05T10:37:04.047Z,53.20
2019-05-05T10:39:33.502Z,52.80
2019-05-05T10:41:59.120Z,51.60
2019-05-05T10:44:26.056Z,53.00
2019-05-05T10:46:53.921Z,55.10
2019-05-05T10:49:19.922Z,53.80
2019-05-05T10:51:46.877Z,53.60
2019-05-05T10:54:14.258Z,53.30
2019-05-05T10:56:40.736Z,54.90
2019-05-05T10:59:07.698Z,54.70
2019-05-05T11:01:34.636Z,57.80
2019-05-05T11:04:01.549Z,56.00
2019-05-05T11:06:28.471Z,56.40
2019-05-05T11:08:56.156Z,56.50
2019-05-05T11:11:23.875Z,55.00
2019-05-05T11:13:50.128Z,55.30
2019-05-05T11:16:17.072Z,55.80
2019-05-05T11:18:44.010Z,55.80
2019-05-05T11:21:10.953Z,57.40
2019-05-05T11:23:37.913Z,57.80
2019-05-05T11:26:04.861Z,59.00
2019-05-05T11:28:33.951Z,60.40
2019-05-05T11:30:59.397Z,59.60
2019-05-05T11:33:34.446Z,59.20
2019-05-05T11:36:13.557Z,61.60
2019-05-05T11:38:41.267Z,61.70
2019-05-05T11:41:05.526Z,61.70
2019-05-05T11:43:33.818Z,62.50
2019-05-05T11:45:59.392Z,63.70
2019-05-05T11:48:26.335Z,62.40
2019-05-05T11:50:54.079Z,63.10
2019-05-05T11:53:20.219Z,66.50
2019-05-05T11:55:47.164Z,67.40
2019-05-05T11:58:14.425Z,65.80
2019-05-05T12:00:41.054Z,63.20
2019-05-05T12:03:07.972Z,62.90
2019-05-05T12:05:34.916Z,61.70
2019-05-05T12:08:03.810Z,60.60
2019-05-05T12:10:35.079Z,59.10
2019-05-05T12:13:03.664Z,58.60
2019-05-05T12:15:28.971Z,58.70
2019-05-05T12:17:55.896Z,59.00
2019-05-05T12:20:26.713Z,59.00
2019-05-05T12:22:53.927Z,58.20
2019-05-05T12:25:28.570Z,57.00
2019-05-05T12:27:59.692Z,56.70
2019-05-05T12:30:26.625Z,57.50
2019-05-05T12:32:55.284Z,56.50
2019-05-05T12:35:20.496Z,56.10
2019-05-05T12:37:47.424Z,55.10
2019-05-05T12:40:14.460Z,55.00
2019-05-05T12:42:41.277Z,52.70
2019-05-05T12:45:09.488Z,53.10
2019-05-05T12:47:58.914Z,53.70
2019-05-05T12:50:25.836Z,54.80
2019-05-05T12:52:54.766Z,52.20
2019-05-05T12:55:19.696Z,53.50
2019-05-05T12:57:46.622Z,52.00
2019-05-05T13:00:14.641Z,53.70
2019-05-05T13:02:40.868Z,53.80
2019-05-05T13:05:07.801Z,53.50
2019-05-05T13:07:34.752Z,53.40
2019-05-05T13:10:02.132Z,54.30
2019-05-05T13:12:31.020Z,53.50
2019-05-05T13:14:57.941Z,53.20
2019-05-05T13:17:24.901Z,53.70
2019-05-05T13:19:57.408Z,52.80
2019-05-05T13:22:30.051Z,52.50
2019-05-05T13:25:04.681Z,53.20
2019-05-05T13:27:34.956Z,54.00
2019-05-05T13:30:04.143Z,51.70
2019-05-05T13:32:28.820Z,51.10
2019-05-05T13:34:56.305Z,51.50
2019-05-05T13:37:24.458Z,51.00
2019-05-05T13:39:50.147Z,50.70
2019-05-05T13:42:17.072Z,50.90
2019-05-05T13:44:55.651Z,49.90
2019-05-05T13:47:23.841Z,52.10
2019-05-05T13:49:49.511Z,51.80
2019-05-05T13:52:16.449Z,50.50
2019-05-05T13:54:43.920Z,50.50
2019-05-05T13:57:10.356Z,49.80
2019-05-05T13:59:37.284Z,49.90
2019-05-05T14:02:04.265Z,49.00
2019-05-05T14:04:31.180Z,49.50
2019-05-05T14:06:58.096Z,50.50
2019-05-05T14:09:25.679Z,50.90
2019-05-05T14:11:53.521Z,52.80
2019-05-05T14:14:20.107Z,52.20
2019-05-05T14:16:47.053Z,51.30
2019-05-05T14:19:14.647Z,53.10
2019-05-05T14:21:40.914Z,51.50
2019-05-05T14:24:14.898Z,51.40
2019-05-05T14:26:41.812Z,51.10
2019-05-05T14:29:09.732Z,50.20
2019-05-05T14:31:38.427Z,50.50
2019-05-05T14:34:11.416Z,47.70
2019-05-05T14:36:48.601Z,47.20
2019-05-05T14:39:16.201Z,47.90
2019-05-05T14:41:44.569Z,48.50
2019-05-05T14:44:10.056Z,47.60
2019-05-05T14:46:37.028Z,48.40
2019-05-05T14:49:05.711Z,47.80
2019-05-05T14:51:30.891Z,47.90
2019-05-05T14:53:57.880Z,47.50
2019-05-05T14:56:35.699Z,46.10
2019-05-05T14:58:51.768Z,46.50
2019-05-05T15:01:18.675Z,45.50
2019-05-05T15:03:45.631Z,46.70
2019-05-05T15:06:37.136Z,45.50
2019-05-05T15:09:27.982Z,44.80
2019-05-05T15:12:03.763Z,46.60
2019-05-05T15:14:30.713Z,45.40
2019-05-05T15:16:57.643Z,46.70
2019-05-05T15:19:24.612Z,45.80
2019-05-05T15:21:53.514Z,46.20
2019-05-05T15:24:18.389Z,46.70
2019-05-05T15:26:51.883Z,46.40
2019-05-05T15:29:12.243Z,47.50
2019-05-05T15:31:39.248Z,46.40
2019-05-05T15:34:06.195Z,46.10
2019-05-05T15:36:33.495Z,47.20
2019-05-05T15:39:00.037Z,47.40
2019-05-05T15:41:27.114Z,47.80
2019-05-05T15:43:54.410Z,46.00
2019-05-05T15:46:20.964Z,46.10
2019-05-05T15:48:47.909Z,46.80
2019-05-05T15:51:14.852Z,47.70
2019-05-05T15:53:41.775Z,47.40
2019-05-05T15:56:08.716Z,47.60
2019-05-05T15:58:35.645Z,48.10
2019-05-05T16:01:03.756Z,49.80
2019-05-05T16:03:29.956Z,50.00
2019-05-05T16:05:56.450Z,50.60
2019-05-05T16:08:23.365Z,51.10
2019-05-05T16:10:50.306Z,50.70
2019-05-05T16:13:17.260Z,48.50
2019-05-05T16:15:55.902Z,51.10
2019-05-05T16:18:30.924Z,51.10
2019-05-05T16:21:06.016Z,51.20
2019-05-05T16:23:36.015Z,49.10
2019-05-05T16:26:03.688Z,47.60
2019-05-05T16:28:29.677Z,49.00
2019-05-05T16:30:56.613Z,49.70
2019-05-05T16:33:24.165Z,49.30
2019-05-05T16:35:50.455Z,49.50
2019-05-05T16:38:17.379Z,49.70
2019-05-05T16:40:44.518Z,48.40
2019-05-05T16:43:11.277Z,49.20
2019-05-05T16:45:38.192Z,49.80
2019-05-05T16:48:05.136Z,50.30
2019-05-05T16:50:34.095Z,50.80
2019-05-05T16:53:03.771Z,50.90
2019-05-05T16:55:31.951Z,52.20
2019-05-05T16:57:59.115Z,52.50
2019-05-05T17:00:26.119Z,52.10
2019-05-05T17:02:53.706Z,51.00
2019-05-05T17:05:19.996Z,51.70
2019-05-05T17:07:46.923Z,51.80
2019-05-05T17:10:13.953Z,51.70
2019-05-05T17:12:40.792Z,51.30
2019-05-05T17:15:19.630Z,51.70
2019-05-05T17:17:54.036Z,52.30
2019-05-05T17:20:21.892Z,52.30
2019-05-05T17:22:54.588Z,52.30
2019-05-05T17:25:20.041Z,53.10
2019-05-05T17:27:50.499Z,52.70
2019-05-05T17:30:14.081Z,53.20
2019-05-05T17:32:41.023Z,53.70
2019-05-05T17:35:07.973Z,53.60
2019-05-05T17:37:34.952Z,53.60
2019-05-05T17:40:07.635Z,53.70
2019-05-05T17:42:49.949Z,53.70
2019-05-05T17:45:40.508Z,53.80
2019-05-05T17:48:14.142Z,53.90
2019-05-05T17:50:46.095Z,54.60
2019-05-05T17:53:19.579Z,55.30
2019-05-05T17:55:46.521Z,55.80
2019-05-05T17:58:13.748Z,56.60
2019-05-05T18:00:47.032Z,56.80
2019-05-05T18:03:12.164Z,56.60
2019-05-05T18:05:44.909Z,56.50
2019-05-05T18:08:17.621Z,56.60
2019-05-05T18:10:45.755Z,57.30
2019-05-05T18:13:24.753Z,57.50
2019-05-05T18:15:54.338Z,58.00
2019-05-05T18:18:23.336Z,58.40
2019-05-05T18:20:48.184Z,58.70
2019-05-05T18:23:15.147Z,58.90
2019-05-05T18:25:44.070Z,58.70
2019-05-05T18:28:17.158Z,58.90
2019-05-05T18:30:35.945Z,59.40
2019-05-05T18:33:04.195Z,59.20
2019-05-05T18:35:29.859Z,59.70
2019-05-05T18:37:56.785Z,60.70
2019-05-05T18:40:24.126Z,60.70
2019-05-05T18:42:50.697Z,61.70
2019-05-05T18:45:17.640Z,61.20
2019-05-05T18:47:44.580Z,62.00
2019-05-05T18:50:13.485Z,62.40
2019-05-05T18:52:38.461Z,63.20
2019-05-05T18:55:05.493Z,63.90
2019-05-05T18:57:34.144Z,65.70
2019-05-05T18:59:59.365Z,65.30
2019-05-05T19:02:47.960Z,65.30
2019-05-05T19:05:20.591Z,65.50
2019-05-05T19:07:55.927Z,65.80
2019-05-05T19:10:20.731Z,65.60
2019-05-05T19:12:50.753Z,66.00
2019-05-05T19:15:15.084Z,67.20
2019-05-05T19:17:42.003Z,67.60
2019-05-05T19:20:17.148Z,69.40
2019-05-05T19:22:44.085Z,69.70
2019-05-05T19:25:14.848Z,66.90
2019-05-05T19:27:42.468Z,66.10
2019-05-05T19:30:09.783Z,65.30
2019-05-05T19:32:36.951Z,66.40
2019-05-05T19:35:04.086Z,67.80
2019-05-05T19:37:30.984Z,66.50
2019-05-05T19:39:57.908Z,67.80
2019-05-05T19:42:24.855Z,70.60
2019-05-05T19:44:51.804Z,72.30
2019-05-05T19:47:19.985Z,72.10
2019-05-05T19:49:53.614Z,69.80
2019-05-05T19:52:20.556Z,72.60
2019-05-05T19:54:47.718Z,73.90
2019-05-05T19:57:14.506Z,76.30
2019-05-05T19:59:41.361Z,78.10
2019-05-05T20:02:08.300Z,77.00
2019-05-05T20:04:35.236Z,76.50
2019-05-05T20:07:04.251Z,77.20
2019-05-05T20:09:29.099Z,77.30
2019-05-05T20:11:56.049Z,78.70
2019-05-05T20:14:24.790Z,77.50
2019-05-05T20:17:06.906Z,77.20
2019-05-05T20:19:37.963Z,76.50
2019-05-05T20:22:05.224Z,78.10
2019-05-05T20:24:33.690Z,79.50
2019-05-05T20:26:59.127Z,79.90
2019-05-05T20:29:26.036Z,79.10
2019-05-05T20:31:54.816Z,79.60
2019-05-05T20:34:28.529Z,80.40
2019-05-05T20:37:01.342Z,80.20
2019-05-05T20:39:28.275Z,79.90
2019-05-05T20:41:55.197Z,79.80
2019-05-05T20:44:22.150Z,79.60
2019-05-05T20:46:49.083Z,80.70
2019-05-05T20:49:16.011Z,81.40
2019-05-05T20:51:44.444Z,81.50
2019-05-05T20:54:10.254Z,82.40
2019-05-05T20:56:37.191Z,81.80
2019-05-05T20:59:04.134Z,81.30
2019-05-05T21:01:31.090Z,81.00
2019-05-05T21:03:59.062Z,82.60
2019-05-05T21:06:24.961Z,83.40
2019-05-05T21:08:52.248Z,82.80
2019-05-05T21:11:19.176Z,82.00
2019-05-05T21:13:46.130Z,82.00
2019-05-05T21:16:14.153Z,82.90
2019-05-05T21:18:39.995Z,83.70
2019-05-05T21:21:08.145Z,83.10
2019-05-05T21:23:40.379Z,84.30
2019-05-05T21:26:19.273Z,85.20
2019-05-05T21:28:46.207Z,84.80
2019-05-05T21:31:14.470Z,86.00
2019-05-05T21:33:40.070Z,86.60
2019-05-05T21:36:06.982Z,86.30
2019-05-05T21:38:35.611Z,85.20
2019-05-05T21:41:00.852Z,84.40
2019-05-05T21:43:27.795Z,85.50
2019-05-05T21:45:54.734Z,86.90
2019-05-05T21:48:21.691Z,86.40
2019-05-05T21:50:54.058Z,87.30
2019-05-05T21:53:25.123Z,86.90
2019-05-05T21:56:00.432Z,86.80
2019-05-05T21:58:35.876Z,86.90
2019-05-05T22:01:09.105Z,87.40
2019-05-05T22:03:36.957Z,87.30
2019-05-05T22:06:04.201Z,87.80
2019-05-05T22:08:31.138Z,88.10
2019-05-05T22:10:58.138Z,88.20
2019-05-05T22:13:25.104Z,88.60
2019-05-05T22:15:54.415Z,89.00
2019-05-05T22:18:19.000Z,88.90
2019-05-05T22:20:50.481Z,89.10
2019-05-05T22:23:17.404Z,88.50
2019-05-05T22:25:44.792Z,88.50
2019-05-05T22:28:11.713Z,88.00
2019-05-05T22:30:38.632Z,88.80
2019-05-05T22:33:06.160Z,89.10
2019-05-05T22:35:34.892Z,89.00
2019-05-05T22:38:00.013Z,87.80
2019-05-05T22:40:27.149Z,89.20
2019-05-05T22:42:54.658Z,89.20
2019-05-05T22:45:21.041Z,89.30
2019-05-05T22:47:47.967Z,88.90
2019-05-05T22:50:14.917Z,89.40
2019-05-05T22:52:41.916Z,89.50
2019-05-05T22:55:08.832Z,89.60
2019-05-05T22:57:35.773Z,89.30
2019-05-05T23:00:03.767Z,89.00
2019-05-05T23:02:33.813Z,90.10
2019-05-05T23:05:04.170Z,89.50
2019-05-05T23:07:31.999Z,90.00
2019-05-05T23:09:58.937Z,89.70
2019-05-05T23:12:25.864Z,89.80
2019-05-05T23:14:54.550Z,90.00
2019-05-05T23:17:29.836Z,90.10
2019-05-05T23:20:16.431Z,90.10
2019-05-05T23:22:48.496Z,90.10
2019-05-05T23:25:20.363Z,90.10
2019-05-05T23:27:48.232Z,90.40
2019-05-05T23:30:16.020Z,90.70
2019-05-05T23:32:43.891Z,90.60
2019-05-05T23:35:09.096Z,90.70
2019-05-05T23:37:36.036Z,90.70
2019-05-05T23:40:03.853Z,90.80
2019-05-05T23:42:31.083Z,91.00
2019-05-05T23:44:58.053Z,90.80
2019-05-05T23:47:25.007Z,90.80
2019-05-05T23:49:53.731Z,91.00
2019-05-05T23:52:18.864Z,91.10
2019-05-05T23:54:45.788Z,91.10
2019-05-05T23:57:13.794Z,90.90
2019-05-05T23:59:39.664Z,91.10
